This is the latest recevied weather packets stored in our database for station/object AE5TC. If no packets are shown the sender has not sent any weather packets the latest 10 day(s).
| Time | Temp. | Humidity | Pressure | Rain* | Wind** | Luminosity | Snow |
|---|---|---|---|---|---|---|---|
| 1778259638 | 26.67° C | 90% | 1013.6 hPa | 0 mm | - | 331 W/m² | - |
| 1778259335 | 26.11° C | 91% | 1013.5 hPa | 0 mm | - | 180 W/m² | - |
| 1778259032 | 26.67° C | 90% | 1013.5 hPa | 0 mm | - | 138 W/m² | - |
| 1778258728 | 27.22° C | 88% | 1013.7 hPa | 0 mm | - | 240 W/m² | - |
| 1778258425 | 27.22° C | 88% | 1013.7 hPa | 0 mm | - | 263 W/m² | - |
| 1778258123 | 27.78° C | 87% | 1013.8 hPa | 0 mm | - | 263 W/m² | - |
| 1778257819 | 27.22° C | 88% | 1013.6 hPa | 0 mm | - | 539 W/m² | - |
| 1778257516 | 26.11° C | 91% | 1013.9 hPa | 0 mm | - | 337 W/m² | - |
| 1778257214 | 26.11° C | 92% | 1013.8 hPa | 0 mm | - | 132 W/m² | - |
| 1778256910 | 26.11° C | 91% | 1013.9 hPa | 0 mm | - | 104 W/m² | - |
| 1778256608 | 26.11° C | 91% | 1014.2 hPa | 0 mm | - | 144 W/m² | - |
| 1778256306 | 26.67° C | 91% | 1014 hPa | 0 mm | - | 205 W/m² | - |
| 1778256003 | 27.22° C | 89% | 1014.2 hPa | 0 mm | - | 333 W/m² | - |
| 1778255699 | 26.67° C | 90% | 1013.9 hPa | 0 mm | - | 407 W/m² | - |
| 1778255396 | 26.11° C | 91% | 1014.1 hPa | 0 mm | - | 395 W/m² | - |
| 1778255094 | 25.56° C | 93% | 1014.1 hPa | 0 mm | - | 366 W/m² | - |
| 1778254790 | 25.56° C | 93% | 1014.1 hPa | 0 mm | - | 191 W/m² | - |
| 1778254487 | 25.56° C | 94% | 1014.3 hPa | 0 mm | - | 102 W/m² | - |
| 1778254183 | 25.56° C | 94% | 1014 hPa | 0 mm | - | 81 W/m² | - |
| 1778253880 | 26.11° C | 92% | 1014.1 hPa | 0 mm | - | 125 W/m² | - |
| 1778253576 | 26.11° C | 93% | 1013.9 hPa | 0 mm | - | 172 W/m² | - |
| 1778253273 | 25.56° C | 93% | 1014 hPa | 0 mm | - | 138 W/m² | - |
| 1778252970 | 26.11° C | 92% | 1014.1 hPa | 0 mm | - | 141 W/m² | - |
| 1778252666 | 26.11° C | 92% | 1014.1 hPa | 0 mm | - | 282 W/m² | - |
| 1778252362 | 26.11° C | 92% | 1013.9 hPa | 0 mm | - | 263 W/m² | - |
* Rain latest hour (hover to see other rain measurements)
** Current wind speed in m/s (hover to see current wind gust speed)